Oscawana Lake, New York
Current Conditions -  °F | °C
As of 4:45 AM on Sunday 23 Nov 2014 (Local Time) from KSWF Reporting Station
Overcast Overcast  
Wind Chill: 37°   Ceiling: 6000
Heat Index: 41°   Visibility: 10mi
Dew Point: 21°   Wind: 6mph
Humidity: 45%   Direction: 240°WSW
Pressure: 30.14"   Gusts: NA
Location:  41.3969°N, 73.8382°W
Report Text: KSWF 230945Z 24005KT 10SM OVC060 05/M06 A3014
Loading
Personal Weather Stations






























Interactive Weather Map New forecast layout! Learn more

10-Day Weather Forecast

Advertisements
Track Severe Weather on mobile